sensor_id;sensor_type;location;lat;lon;timestamp;pressure;altitude;pressure_sealevel;temperature;humidity
20889;BME280;10604;51.976;7.594;2024-02-21T00:01:25;101405.84;;;22.33;39.17
20889;BME280;10604;51.976;7.594;2024-02-21T00:03:51;101404.00;;;23.47;37.84
20889;BME280;10604;51.976;7.594;2024-02-21T00:06:16;101396.72;;;23.97;37.42
20889;BME280;10604;51.976;7.594;2024-02-21T00:08:41;101396.19;;;24.50;36.18
20889;BME280;10604;51.976;7.594;2024-02-21T00:11:06;101396.91;;;24.41;36.86
20889;BME280;10604;51.976;7.594;2024-02-21T00:13:32;101394.41;;;23.07;38.67
20889;BME280;10604;51.976;7.594;2024-02-21T00:15:57;101392.75;;;23.29;37.99
20889;BME280;10604;51.976;7.594;2024-02-21T00:18:22;101377.56;;;23.89;37.21
20889;BME280;10604;51.976;7.594;2024-02-21T00:20:48;101376.94;;;23.61;37.63
20889;BME280;10604;51.976;7.594;2024-02-21T00:23:13;101365.63;;;23.20;37.52
20889;BME280;10604;51.976;7.594;2024-02-21T00:25:39;101369.34;;;23.66;37.89
20889;BME280;10604;51.976;7.594;2024-02-21T00:28:04;101368.78;;;22.88;38.04
20889;BME280;10604;51.976;7.594;2024-02-21T00:30:30;101356.31;;;24.43;35.96
20889;BME280;10604;51.976;7.594;2024-02-21T00:32:56;101363.88;;;23.19;37.69
20889;BME280;10604;51.976;7.594;2024-02-21T00:35:21;101347.66;;;24.15;36.60
20889;BME280;10604;51.976;7.594;2024-02-21T00:37:46;101350.78;;;23.14;37.91
20889;BME280;10604;51.976;7.594;2024-02-21T00:40:11;101332.84;;;23.26;36.99
20889;BME280;10604;51.976;7.594;2024-02-21T00:42:37;101339.03;;;23.02;38.59
20889;BME280;10604;51.976;7.594;2024-02-21T00:45:02;101337.88;;;23.30;37.50
20889;BME280;10604;51.976;7.594;2024-02-21T00:47:27;101331.13;;;23.61;36.94
20889;BME280;10604;51.976;7.594;2024-02-21T00:49:53;101330.72;;;22.44;38.17
20889;BME280;10604;51.976;7.594;2024-02-21T00:52:18;101321.22;;;23.97;37.26
20889;BME280;10604;51.976;7.594;2024-02-21T00:54:43;101320.19;;;23.39;37.35
20889;BME280;10604;51.976;7.594;2024-02-21T00:57:08;101325.53;;;22.91;38.28
20889;BME280;10604;51.976;7.594;2024-02-21T00:59:33;101312.19;;;23.26;37.67
20889;BME280;10604;51.976;7.594;2024-02-21T01:01:59;101319.19;;;23.76;37.46
20889;BME280;10604;51.976;7.594;2024-02-21T01:04:24;101328.44;;;24.31;36.10
20889;BME280;10604;51.976;7.594;2024-02-21T01:06:49;101321.28;;;23.49;37.12
20889;BME280;10604;51.976;7.594;2024-02-21T01:09:15;101327.81;;;23.21;37.75
20889;BME280;10604;51.976;7.594;2024-02-21T01:11:40;101319.41;;;24.66;36.38
20889;BME280;10604;51.976;7.594;2024-02-21T01:14:05;101326.53;;;24.09;36.82
20889;BME280;10604;51.976;7.594;2024-02-21T01:16:30;101322.81;;;23.64;37.32
20889;BME280;10604;51.976;7.594;2024-02-21T01:18:55;101324.31;;;25.16;35.63
20889;BME280;10604;51.976;7.594;2024-02-21T01:21:21;101319.19;;;25.13;35.23
20889;BME280;10604;51.976;7.594;2024-02-21T01:23:46;101327.75;;;24.05;36.43
20889;BME280;10604;51.976;7.594;2024-02-21T01:26:11;101324.97;;;24.18;36.41
20889;BME280;10604;51.976;7.594;2024-02-21T01:28:38;101320.28;;;24.09;36.92
20889;BME280;10604;51.976;7.594;2024-02-21T01:31:04;101314.00;;;24.21;36.11
20889;BME280;10604;51.976;7.594;2024-02-21T01:33:29;101305.81;;;24.10;36.92
20889;BME280;10604;51.976;7.594;2024-02-21T01:35:59;101305.69;;;24.35;35.71
20889;BME280;10604;51.976;7.594;2024-02-21T01:38:25;101309.13;;;25.04;35.17
20889;BME280;10604;51.976;7.594;2024-02-21T01:40:50;101304.06;;;25.65;34.68
20889;BME280;10604;51.976;7.594;2024-02-21T01:43:15;101306.47;;;24.93;34.84
20889;BME280;10604;51.976;7.594;2024-02-21T01:45:41;101293.88;;;23.55;37.17
20889;BME280;10604;51.976;7.594;2024-02-21T01:48:06;101293.91;;;24.81;35.33
20889;BME280;10604;51.976;7.594;2024-02-21T01:50:32;101285.94;;;25.45;34.36
20889;BME280;10604;51.976;7.594;2024-02-21T01:52:58;101286.56;;;24.72;35.57
20889;BME280;10604;51.976;7.594;2024-02-21T01:55:23;101292.19;;;24.46;36.19
20889;BME280;10604;51.976;7.594;2024-02-21T01:57:48;101277.59;;;24.38;35.80
20889;BME280;10604;51.976;7.594;2024-02-21T02:00:14;101278.16;;;23.01;37.50
20889;BME280;10604;51.976;7.594;2024-02-21T02:02:40;101269.75;;;23.89;36.89
20889;BME280;10604;51.976;7.594;2024-02-21T02:05:05;101270.34;;;24.27;36.54
20889;BME280;10604;51.976;7.594;2024-02-21T02:07:31;101271.72;;;23.98;36.53
20889;BME280;10604;51.976;7.594;2024-02-21T02:09:56;101258.44;;;24.74;35.67
20889;BME280;10604;51.976;7.594;2024-02-21T02:12:22;101252.31;;;23.81;36.75
20889;BME280;10604;51.976;7.594;2024-02-21T02:14:56;101248.00;;;25.03;35.43
20889;BME280;10604;51.976;7.594;2024-02-21T02:17:22;101245.03;;;22.76;37.95
20889;BME280;10604;51.976;7.594;2024-02-21T02:19:47;101248.50;;;24.30;36.46
20889;BME280;10604;51.976;7.594;2024-02-21T02:22:14;101233.53;;;24.15;36.73
20889;BME280;10604;51.976;7.594;2024-02-21T02:24:43;101225.81;;;24.10;36.73
20889;BME280;10604;51.976;7.594;2024-02-21T02:27:08;101215.97;;;22.81;38.12
20889;BME280;10604;51.976;7.594;2024-02-21T02:29:33;101210.25;;;24.70;35.64
20889;BME280;10604;51.976;7.594;2024-02-21T02:31:59;101200.22;;;24.49;35.83
20889;BME280;10604;51.976;7.594;2024-02-21T02:34:24;101216.66;;;24.46;35.99
20889;BME280;10604;51.976;7.594;2024-02-21T02:36:49;101201.41;;;24.68;35.39
20889;BME280;10604;51.976;7.594;2024-02-21T02:39:14;101200.41;;;23.45;37.29
20889;BME280;10604;51.976;7.594;2024-02-21T02:41:40;101192.00;;;23.60;37.76
20889;BME280;10604;51.976;7.594;2024-02-21T02:44:05;101190.88;;;23.87;36.45
20889;BME280;10604;51.976;7.594;2024-02-21T02:46:30;101187.38;;;23.62;36.85
20889;BME280;10604;51.976;7.594;2024-02-21T02:48:55;101188.66;;;23.92;36.60
20889;BME280;10604;51.976;7.594;2024-02-21T02:51:21;101183.38;;;23.90;36.42
20889;BME280;10604;51.976;7.594;2024-02-21T02:53:46;101175.88;;;24.83;35.09
20889;BME280;10604;51.976;7.594;2024-02-21T02:56:14;101160.22;;;24.10;36.17
20889;BME280;10604;51.976;7.594;2024-02-21T02:58:40;101160.16;;;24.88;35.69
20889;BME280;10604;51.976;7.594;2024-02-21T03:01:06;101160.56;;;25.15;34.88
20889;BME280;10604;51.976;7.594;2024-02-21T03:03:31;101149.69;;;23.85;36.70
20889;BME280;10604;51.976;7.594;2024-02-21T03:05:57;101150.75;;;23.25;37.15
20889;BME280;10604;51.976;7.594;2024-02-21T03:08:22;101160.50;;;24.40;36.29
20889;BME280;10604;51.976;7.594;2024-02-21T03:10:47;101158.53;;;25.08;34.67
20889;BME280;10604;51.976;7.594;2024-02-21T03:13:13;101155.88;;;25.28;34.55
20889;BME280;10604;51.976;7.594;2024-02-21T03:15:39;101163.31;;;25.36;34.65
20889;BME280;10604;51.976;7.594;2024-02-21T03:18:04;101157.19;;;25.76;34.31
20889;BME280;10604;51.976;7.594;2024-02-21T03:20:29;101174.38;;;25.54;34.22
20889;BME280;10604;51.976;7.594;2024-02-21T03:22:54;101175.84;;;25.05;34.51
20889;BME280;10604;51.976;7.594;2024-02-21T03:25:20;101178.91;;;24.24;35.97
20889;BME280;10604;51.976;7.594;2024-02-21T03:27:45;101184.88;;;23.48;37.07
20889;BME280;10604;51.976;7.594;2024-02-21T03:30:11;101188.22;;;24.42;35.12
20889;BME280;10604;51.976;7.594;2024-02-21T03:32:37;101201.50;;;25.31;34.26
20889;BME280;10604;51.976;7.594;2024-02-21T03:35:04;101183.72;;;24.97;34.37
20889;BME280;10604;51.976;7.594;2024-02-21T03:37:29;101190.06;;;23.62;36.30
20889;BME280;10604;51.976;7.594;2024-02-21T03:40:00;101188.88;;;25.94;33.94
20889;BME280;10604;51.976;7.594;2024-02-21T03:42:27;101191.22;;;25.78;33.68
20889;BME280;10604;51.976;7.594;2024-02-21T03:44:54;101182.84;;;24.96;34.56
20889;BME280;10604;51.976;7.594;2024-02-21T03:47:19;101168.03;;;24.91;35.17
20889;BME280;10604;51.976;7.594;2024-02-21T03:49:45;101166.00;;;24.61;35.56
20889;BME280;10604;51.976;7.594;2024-02-21T03:52:10;101161.63;;;24.81;34.33
20889;BME280;10604;51.976;7.594;2024-02-21T03:54:35;101167.13;;;24.47;35.72
20889;BME280;10604;51.976;7.594;2024-02-21T03:57:00;101165.66;;;24.32;35.43
20889;BME280;10604;51.976;7.594;2024-02-21T03:59:26;101162.25;;;24.84;35.18
20889;BME280;10604;51.976;7.594;2024-02-21T04:01:51;101176.03;;;23.46;36.52
20889;BME280;10604;51.976;7.594;2024-02-21T04:04:17;101179.88;;;24.56;35.22
20889;BME280;10604;51.976;7.594;2024-02-21T04:06:46;101180.47;;;25.14;34.60
20889;BME280;10604;51.976;7.594;2024-02-21T04:09:11;101172.91;;;24.43;35.61
20889;BME280;10604;51.976;7.594;2024-02-21T04:11:36;101173.06;;;23.38;36.68
20889;BME280;10604;51.976;7.594;2024-02-21T04:14:02;101168.81;;;24.37;35.77
20889;BME280;10604;51.976;7.594;2024-02-21T04:16:27;101168.38;;;24.21;35.40
20889;BME280;10604;51.976;7.594;2024-02-21T04:18:52;101174.25;;;25.55;34.25
20889;BME280;10604;51.976;7.594;2024-02-21T04:21:17;101162.41;;;24.72;34.99
20889;BME280;10604;51.976;7.594;2024-02-21T04:23:43;101165.53;;;25.63;33.21
20889;BME280;10604;51.976;7.594;2024-02-21T04:26:08;101160.75;;;24.26;35.32
20889;BME280;10604;51.976;7.594;2024-02-21T04:28:33;101165.81;;;23.62;36.10
20889;BME280;10604;51.976;7.594;2024-02-21T04:30:58;101160.53;;;24.29;35.78
20889;BME280;10604;51.976;7.594;2024-02-21T04:33:23;101159.22;;;24.67;35.04
20889;BME280;10604;51.976;7.594;2024-02-21T04:35:49;101167.34;;;25.10;34.47
20889;BME280;10604;51.976;7.594;2024-02-21T04:38:14;101178.25;;;26.02;33.13
20889;BME280;10604;51.976;7.594;2024-02-21T04:40:40;101170.88;;;25.21;33.85
20889;BME280;10604;51.976;7.594;2024-02-21T04:43:05;101174.66;;;24.76;34.41
20889;BME280;10604;51.976;7.594;2024-02-21T04:45:30;101173.44;;;24.69;35.19
20889;BME280;10604;51.976;7.594;2024-02-21T04:47:55;101188.88;;;25.94;33.17
20889;BME280;10604;51.976;7.594;2024-02-21T04:50:20;101183.19;;;25.03;34.60
20889;BME280;10604;51.976;7.594;2024-02-21T04:52:46;101171.00;;;24.77;35.07
20889;BME280;10604;51.976;7.594;2024-02-21T04:55:11;101175.84;;;22.29;37.32
20889;BME280;10604;51.976;7.594;2024-02-21T04:57:36;101166.06;;;24.93;34.50
20889;BME280;10604;51.976;7.594;2024-02-21T05:00:01;101157.56;;;24.43;35.17
20889;BME280;10604;51.976;7.594;2024-02-21T05:02:28;101151.75;;;23.35;35.99
20889;BME280;10604;51.976;7.594;2024-02-21T05:04:53;101159.25;;;24.44;35.45
20889;BME280;10604;51.976;7.594;2024-02-21T05:07:19;101161.75;;;24.25;35.20
20889;BME280;10604;51.976;7.594;2024-02-21T05:09:47;101161.69;;;23.69;36.53
20889;BME280;10604;51.976;7.594;2024-02-21T05:12:12;101154.38;;;24.38;35.14
20889;BME280;10604;51.976;7.594;2024-02-21T05:14:37;101151.75;;;25.96;33.08
20889;BME280;10604;51.976;7.594;2024-02-21T05:17:05;101150.34;;;25.92;33.25
20889;BME280;10604;51.976;7.594;2024-02-21T05:19:31;101138.44;;;24.35;34.65
20889;BME280;10604;51.976;7.594;2024-02-21T05:21:56;101135.47;;;24.49;34.70
20889;BME280;10604;51.976;7.594;2024-02-21T05:24:21;101135.13;;;24.43;35.47
20889;BME280;10604;51.976;7.594;2024-02-21T05:26:46;101123.00;;;23.93;35.62
20889;BME280;10604;51.976;7.594;2024-02-21T05:29:12;101119.06;;;23.63;35.92
20889;BME280;10604;51.976;7.594;2024-02-21T05:34:18;101119.84;;;24.21;35.20
20889;BME280;10604;51.976;7.594;2024-02-21T05:36:43;101109.94;;;24.53;34.89
20889;BME280;10604;51.976;7.594;2024-02-21T05:39:09;101109.75;;;24.12;35.39
20889;BME280;10604;51.976;7.594;2024-02-21T05:41:34;101106.97;;;24.68;34.52
20889;BME280;10604;51.976;7.594;2024-02-21T05:43:59;101099.09;;;24.76;34.13
20889;BME280;10604;51.976;7.594;2024-02-21T05:46:24;101100.81;;;24.11;35.53
20889;BME280;10604;51.976;7.594;2024-02-21T05:48:50;101101.84;;;24.65;35.21
20889;BME280;10604;51.976;7.594;2024-02-21T05:51:15;101103.78;;;23.29;37.03
20889;BME280;10604;51.976;7.594;2024-02-21T05:53:40;101104.38;;;24.34;35.84
20889;BME280;10604;51.976;7.594;2024-02-21T05:56:09;101117.47;;;24.05;36.55
20889;BME280;10604;51.976;7.594;2024-02-21T05:58:35;101102.13;;;24.17;36.00
20889;BME280;10604;51.976;7.594;2024-02-21T06:01:00;101106.38;;;25.07;34.40
20889;BME280;10604;51.976;7.594;2024-02-21T06:03:28;101106.63;;;24.61;35.64
20889;BME280;10604;51.976;7.594;2024-02-21T06:05:53;101103.66;;;25.07;34.88
20889;BME280;10604;51.976;7.594;2024-02-21T06:08:18;101089.69;;;24.59;35.34
20889;BME280;10604;51.976;7.594;2024-02-21T06:10:43;101079.03;;;23.24;36.73
20889;BME280;10604;51.976;7.594;2024-02-21T06:13:09;101078.44;;;24.54;35.41
20889;BME280;10604;51.976;7.594;2024-02-21T06:15:34;101080.72;;;25.22;34.45
20889;BME280;10604;51.976;7.594;2024-02-21T06:17:59;101079.00;;;24.26;35.30
20889;BME280;10604;51.976;7.594;2024-02-21T06:20:25;101077.28;;;23.69;36.47
20889;BME280;10604;51.976;7.594;2024-02-21T06:22:50;101074.00;;;23.65;36.62
20889;BME280;10604;51.976;7.594;2024-02-21T06:25:15;101077.50;;;24.44;35.29
20889;BME280;10604;51.976;7.594;2024-02-21T06:27:40;101073.75;;;23.68;36.27
20889;BME280;10604;51.976;7.594;2024-02-21T06:30:06;101061.50;;;23.87;36.00
20889;BME280;10604;51.976;7.594;2024-02-21T06:32:31;101061.56;;;23.29;36.64
20889;BME280;10604;51.976;7.594;2024-02-21T06:34:56;101052.41;;;23.88;36.62
20889;BME280;10604;51.976;7.594;2024-02-21T06:37:22;101054.00;;;25.19;34.58
20889;BME280;10604;51.976;7.594;2024-02-21T06:39:47;101046.91;;;24.54;35.72
20889;BME280;10604;51.976;7.594;2024-02-21T06:42:12;101051.03;;;22.80;37.09
20889;BME280;10604;51.976;7.594;2024-02-21T06:44:37;101035.97;;;21.81;38.99
20889;BME280;10604;51.976;7.594;2024-02-21T06:47:05;101033.56;;;24.53;35.03
20889;BME280;10604;51.976;7.594;2024-02-21T06:49:30;101033.22;;;24.46;35.08
20889;BME280;10604;51.976;7.594;2024-02-21T06:51:55;101024.66;;;24.41;35.18
20889;BME280;10604;51.976;7.594;2024-02-21T06:54:21;101029.13;;;25.67;33.79
20889;BME280;10604;51.976;7.594;2024-02-21T06:56:46;101033.78;;;24.82;33.87
20889;BME280;10604;51.976;7.594;2024-02-21T06:59:11;101032.19;;;23.37;36.53
20889;BME280;10604;51.976;7.594;2024-02-21T07:01:43;101027.63;;;24.27;35.40
20889;BME280;10604;51.976;7.594;2024-02-21T07:04:09;101031.34;;;24.04;35.62
20889;BME280;10604;51.976;7.594;2024-02-21T07:06:34;101034.91;;;23.93;35.14
20889;BME280;10604;51.976;7.594;2024-02-21T07:08:59;101033.28;;;24.24;34.84
20889;BME280;10604;51.976;7.594;2024-02-21T07:11:24;101041.09;;;24.16;35.48
20889;BME280;10604;51.976;7.594;2024-02-21T07:13:49;101041.59;;;24.32;35.27
20889;BME280;10604;51.976;7.594;2024-02-21T07:16:15;101041.88;;;24.93;34.46
20889;BME280;10604;51.976;7.594;2024-02-21T07:18:40;101038.09;;;24.52;35.13
20889;BME280;10604;51.976;7.594;2024-02-21T07:21:05;101035.50;;;23.97;35.50
20889;BME280;10604;51.976;7.594;2024-02-21T07:23:31;101036.94;;;24.87;34.43
20889;BME280;10604;51.976;7.594;2024-02-21T07:25:56;101041.34;;;24.35;34.58
20889;BME280;10604;51.976;7.594;2024-02-21T07:28:21;101042.78;;;23.06;36.00
20889;BME280;10604;51.976;7.594;2024-02-21T07:30:46;101043.94;;;25.21;34.13
20889;BME280;10604;51.976;7.594;2024-02-21T07:33:12;101037.94;;;24.11;35.32
20889;BME280;10604;51.976;7.594;2024-02-21T07:35:37;101043.13;;;23.69;35.75
20889;BME280;10604;51.976;7.594;2024-02-21T07:38:03;101038.78;;;23.33;35.97
20889;BME280;10604;51.976;7.594;2024-02-21T07:40:29;101038.19;;;23.30;36.15
20889;BME280;10604;51.976;7.594;2024-02-21T07:42:54;101036.28;;;24.74;34.41
20889;BME280;10604;51.976;7.594;2024-02-21T07:45:19;101030.09;;;23.41;35.28
20889;BME280;10604;51.976;7.594;2024-02-21T07:47:48;101033.22;;;24.46;34.57
20889;BME280;10604;51.976;7.594;2024-02-21T07:50:13;101033.81;;;23.73;35.86
20889;BME280;10604;51.976;7.594;2024-02-21T07:52:39;101025.41;;;24.32;34.83
20889;BME280;10604;51.976;7.594;2024-02-21T07:55:04;101023.00;;;23.96;35.76
20889;BME280;10604;51.976;7.594;2024-02-21T07:57:29;101017.63;;;23.73;34.95
20889;BME280;10604;51.976;7.594;2024-02-21T07:59:54;101017.97;;;24.56;34.56
20889;BME280;10604;51.976;7.594;2024-02-21T08:02:19;101018.03;;;24.66;34.11
20889;BME280;10604;51.976;7.594;2024-02-21T08:04:45;101010.72;;;24.14;35.21
20889;BME280;10604;51.976;7.594;2024-02-21T08:07:10;101009.22;;;24.96;33.49
20889;BME280;10604;51.976;7.594;2024-02-21T08:09:35;101005.00;;;25.03;33.97
20889;BME280;10604;51.976;7.594;2024-02-21T08:12:02;101001.56;;;24.48;33.99
20889;BME280;10604;51.976;7.594;2024-02-21T08:14:28;101007.31;;;23.45;35.59
20889;BME280;10604;51.976;7.594;2024-02-21T08:16:53;101005.16;;;25.32;33.54
20889;BME280;10604;51.976;7.594;2024-02-21T08:19:20;100993.25;;;26.24;32.65
20889;BME280;10604;51.976;7.594;2024-02-21T08:21:45;101003.75;;;25.07;33.81
20889;BME280;10604;51.976;7.594;2024-02-21T08:24:12;100994.16;;;26.34;32.55
20889;BME280;10604;51.976;7.594;2024-02-21T08:26:39;100991.91;;;24.67;33.50
20889;BME280;10604;51.976;7.594;2024-02-21T08:29:05;100981.66;;;25.84;32.83
20889;BME280;10604;51.976;7.594;2024-02-21T08:31:30;100989.31;;;24.76;34.09
20889;BME280;10604;51.976;7.594;2024-02-21T08:33:59;100983.06;;;25.48;33.10
20889;BME280;10604;51.976;7.594;2024-02-21T08:36:28;100975.59;;;25.30;33.01
20889;BME280;10604;51.976;7.594;2024-02-21T08:38:53;100971.38;;;26.37;32.29
20889;BME280;10604;51.976;7.594;2024-02-21T08:41:18;100964.41;;;24.73;34.05
20889;BME280;10604;51.976;7.594;2024-02-21T08:43:44;100966.03;;;25.57;33.44
20889;BME280;10604;51.976;7.594;2024-02-21T08:46:09;100963.06;;;26.09;32.16
20889;BME280;10604;51.976;7.594;2024-02-21T08:48:34;100961.16;;;25.51;32.80
20889;BME280;10604;51.976;7.594;2024-02-21T08:50:59;100968.06;;;25.04;33.65
20889;BME280;10604;51.976;7.594;2024-02-21T08:53:24;100967.47;;;25.30;33.61
20889;BME280;10604;51.976;7.594;2024-02-21T08:55:50;100955.44;;;24.51;33.89
20889;BME280;10604;51.976;7.594;2024-02-21T08:58:15;100962.81;;;26.51;32.18
20889;BME280;10604;51.976;7.594;2024-02-21T09:00:40;100957.28;;;25.74;32.93
20889;BME280;10604;51.976;7.594;2024-02-21T09:03:05;100953.97;;;25.30;33.33
20889;BME280;10604;51.976;7.594;2024-02-21T09:05:30;100960.34;;;24.57;34.17
20889;BME280;10604;51.976;7.594;2024-02-21T09:07:56;100954.41;;;24.64;33.59
20889;BME280;10604;51.976;7.594;2024-02-21T09:10:21;100941.34;;;26.40;31.94
20889;BME280;10604;51.976;7.594;2024-02-21T09:12:46;100947.44;;;26.61;31.33
20889;BME280;10604;51.976;7.594;2024-02-21T09:15:12;100951.72;;;24.64;33.46
20889;BME280;10604;51.976;7.594;2024-02-21T09:17:37;100948.09;;;23.78;34.37
20889;BME280;10604;51.976;7.594;2024-02-21T09:20:04;100935.84;;;25.52;32.53
20889;BME280;10604;51.976;7.594;2024-02-21T09:22:30;100936.34;;;23.79;34.59
20889;BME280;10604;51.976;7.594;2024-02-21T09:24:56;100923.59;;;24.13;34.79
20889;BME280;10604;51.976;7.594;2024-02-21T09:27:21;100922.88;;;23.46;35.84
20889;BME280;10604;51.976;7.594;2024-02-21T09:29:47;100923.59;;;24.45;33.82
20889;BME280;10604;51.976;7.594;2024-02-21T09:32:12;100918.34;;;24.12;34.21
20889;BME280;10604;51.976;7.594;2024-02-21T09:34:39;100922.00;;;24.11;34.33
20889;BME280;10604;51.976;7.594;2024-02-21T09:37:04;100918.41;;;24.95;33.62
20889;BME280;10604;51.976;7.594;2024-02-21T09:39:30;100904.09;;;26.80;31.43
20889;BME280;10604;51.976;7.594;2024-02-21T09:41:59;100902.41;;;25.03;32.58
20889;BME280;10604;51.976;7.594;2024-02-21T09:44:24;100897.00;;;24.20;34.52
20889;BME280;10604;51.976;7.594;2024-02-21T09:51:41;100895.03;;;25.05;33.15
20889;BME280;10604;51.976;7.594;2024-02-21T09:54:07;100893.06;;;25.07;32.90
20889;BME280;10604;51.976;7.594;2024-02-21T09:56:32;100909.50;;;24.10;33.98
20889;BME280;10604;51.976;7.594;2024-02-21T09:58:57;100896.28;;;24.80;33.41
20889;BME280;10604;51.976;7.594;2024-02-21T10:01:23;100898.63;;;26.34;31.69
20889;BME280;10604;51.976;7.594;2024-02-21T10:03:48;100902.59;;;26.30;31.83
20889;BME280;10604;51.976;7.594;2024-02-21T10:06:14;100901.22;;;24.75;32.40
20889;BME280;10604;51.976;7.594;2024-02-21T10:08:39;100898.84;;;24.82;32.74
20889;BME280;10604;51.976;7.594;2024-02-21T10:11:05;100895.50;;;24.48;32.91
20889;BME280;10604;51.976;7.594;2024-02-21T10:13:30;100894.97;;;24.95;32.79
20889;BME280;10604;51.976;7.594;2024-02-21T10:18:27;100873.72;;;22.99;34.45
20889;BME280;10604;51.976;7.594;2024-02-21T10:21:05;100872.22;;;25.68;32.52
20889;BME280;10604;51.976;7.594;2024-02-21T10:23:47;100884.09;;;26.25;30.41
20889;BME280;10604;51.976;7.594;2024-02-21T10:26:13;100879.22;;;24.49;33.09
20889;BME280;10604;51.976;7.594;2024-02-21T10:28:39;100880.06;;;24.29;33.42
20889;BME280;10604;51.976;7.594;2024-02-21T10:31:07;100874.91;;;24.68;32.76
20889;BME280;10604;51.976;7.594;2024-02-21T10:33:32;100868.78;;;23.49;33.96
20889;BME280;10604;51.976;7.594;2024-02-21T10:36:06;100868.38;;;24.08;34.11
20889;BME280;10604;51.976;7.594;2024-02-21T10:38:31;100860.66;;;24.35;33.42
20889;BME280;10604;51.976;7.594;2024-02-21T10:40:57;100857.16;;;25.95;32.24
20889;BME280;10604;51.976;7.594;2024-02-21T10:43:23;100844.47;;;25.07;33.25
20889;BME280;10604;51.976;7.594;2024-02-21T10:45:50;100848.06;;;26.05;32.43
20889;BME280;10604;51.976;7.594;2024-02-21T10:48:18;100845.81;;;24.92;33.37
20889;BME280;10604;51.976;7.594;2024-02-21T10:50:56;100843.31;;;23.53;34.52
20889;BME280;10604;51.976;7.594;2024-02-21T10:55:58;100829.44;;;25.93;32.01
20889;BME280;10604;51.976;7.594;2024-02-21T10:58:26;100814.47;;;25.89;32.58
20889;BME280;10604;51.976;7.594;2024-02-21T11:00:53;100811.84;;;24.69;33.11
20889;BME280;10604;51.976;7.594;2024-02-21T11:03:19;100819.22;;;25.27;33.25
20889;BME280;10604;51.976;7.594;2024-02-21T11:05:44;100809.75;;;24.51;33.50
20889;BME280;10604;51.976;7.594;2024-02-21T11:08:10;100800.78;;;26.38;32.65
20889;BME280;10604;51.976;7.594;2024-02-21T11:10:36;100810.47;;;23.59;34.86
20889;BME280;10604;51.976;7.594;2024-02-21T11:13:05;100794.22;;;24.34;35.17
20889;BME280;10604;51.976;7.594;2024-02-21T11:15:31;100803.81;;;23.74;35.15
20889;BME280;10604;51.976;7.594;2024-02-21T11:17:56;100787.53;;;23.97;35.58
20889;BME280;10604;51.976;7.594;2024-02-21T11:20:31;100781.09;;;23.45;35.92
20889;BME280;10604;51.976;7.594;2024-02-21T11:22:56;100767.63;;;24.50;34.40
20889;BME280;10604;51.976;7.594;2024-02-21T11:25:22;100760.41;;;25.60;33.08
20889;BME280;10604;51.976;7.594;2024-02-21T11:27:47;100751.53;;;26.16;32.29
20889;BME280;10604;51.976;7.594;2024-02-21T11:30:12;100770.56;;;23.64;35.53
20889;BME280;10604;51.976;7.594;2024-02-21T11:32:39;100750.28;;;23.49;35.99
20889;BME280;10604;51.976;7.594;2024-02-21T11:35:05;100740.50;;;24.01;35.42
20889;BME280;10604;51.976;7.594;2024-02-21T11:37:31;100744.16;;;25.31;33.95
20889;BME280;10604;51.976;7.594;2024-02-21T11:40:02;100729.84;;;24.20;34.82
20889;BME280;10604;51.976;7.594;2024-02-21T11:42:28;100727.13;;;23.58;35.32
20889;BME280;10604;51.976;7.594;2024-02-21T11:44:54;100728.09;;;24.19;35.15
20889;BME280;10604;51.976;7.594;2024-02-21T11:47:21;100729.13;;;23.01;36.00
20889;BME280;10604;51.976;7.594;2024-02-21T11:49:47;100728.22;;;24.38;34.52
20889;BME280;10604;51.976;7.594;2024-02-21T11:52:20;100723.25;;;24.74;33.58
20889;BME280;10604;51.976;7.594;2024-02-21T11:54:47;100705.34;;;24.63;34.36
20889;BME280;10604;51.976;7.594;2024-02-21T11:57:12;100689.69;;;24.97;34.43
20889;BME280;10604;51.976;7.594;2024-02-21T11:59:39;100670.91;;;24.46;34.63
20889;BME280;10604;51.976;7.594;2024-02-21T12:02:04;100676.75;;;25.10;33.79
20889;BME280;10604;51.976;7.594;2024-02-21T12:04:30;100667.75;;;24.10;34.19
20889;BME280;10604;51.976;7.594;2024-02-21T12:06:56;100659.75;;;24.20;34.13
20889;BME280;10604;51.976;7.594;2024-02-21T12:09:23;100651.47;;;25.30;33.05
20889;BME280;10604;51.976;7.594;2024-02-21T12:11:56;100646.22;;;25.00;33.85
20889;BME280;10604;51.976;7.594;2024-02-21T12:14:21;100640.81;;;26.14;32.45
20889;BME280;10604;51.976;7.594;2024-02-21T12:16:47;100646.59;;;24.86;33.02
20889;BME280;10604;51.976;7.594;2024-02-21T12:19:12;100636.38;;;25.76;32.75
20889;BME280;10604;51.976;7.594;2024-02-21T12:21:38;100646.59;;;26.56;31.54
20889;BME280;10604;51.976;7.594;2024-02-21T12:26:38;100632.69;;;25.58;32.05
20889;BME280;10604;51.976;7.594;2024-02-21T12:29:03;100611.38;;;25.35;32.21
20889;BME280;10604;51.976;7.594;2024-02-21T12:31:28;100607.91;;;26.46;31.23
20889;BME280;10604;51.976;7.594;2024-02-21T12:33:54;100604.47;;;26.17;31.56
20889;BME280;10604;51.976;7.594;2024-02-21T12:36:19;100575.63;;;27.33;30.43
20889;BME280;10604;51.976;7.594;2024-02-21T12:38:44;100584.03;;;27.74;29.73
20889;BME280;10604;51.976;7.594;2024-02-21T12:41:11;100541.06;;;27.09;30.57
20889;BME280;10604;51.976;7.594;2024-02-21T12:43:36;100564.09;;;26.42;30.28
20889;BME280;10604;51.976;7.594;2024-02-21T12:46:03;100570.44;;;27.22;30.18
20889;BME280;10604;51.976;7.594;2024-02-21T12:48:28;100553.94;;;26.17;31.05
20889;BME280;10604;51.976;7.594;2024-02-21T12:50:54;100549.59;;;27.40;30.40
20889;BME280;10604;51.976;7.594;2024-02-21T12:53:19;100545.97;;;27.83;29.67
20889;BME280;10604;51.976;7.594;2024-02-21T12:55:49;100533.31;;;27.92;29.71
20889;BME280;10604;51.976;7.594;2024-02-21T12:58:14;100524.56;;;28.06;29.52